createdAt,value
2017-12-10T00:02:31.365Z,5.30
2017-12-10T00:07:33.646Z,4.10
2017-12-10T00:12:35.892Z,3.73
2017-12-10T00:17:37.438Z,4.20
2017-12-10T00:22:38.997Z,3.80
2017-12-10T00:27:40.534Z,4.00
2017-12-10T00:32:42.788Z,4.13
2017-12-10T00:37:44.273Z,4.07
2017-12-10T00:42:45.800Z,3.90
2017-12-10T00:47:47.289Z,3.57
2017-12-10T00:52:48.844Z,4.10
2017-12-10T00:57:50.353Z,3.73
2017-12-10T01:02:52.600Z,3.87
2017-12-10T01:07:54.102Z,3.47
2017-12-10T01:12:56.385Z,4.33
2017-12-10T01:18:05.665Z,3.47
2017-12-10T01:23:07.217Z,3.80
2017-12-10T01:28:09.465Z,3.83
2017-12-10T01:33:10.978Z,6.73
2017-12-10T01:38:12.469Z,4.73
2017-12-10T01:43:13.969Z,3.50
2017-12-10T01:48:15.444Z,3.97
2017-12-10T01:53:17.142Z,4.10
2017-12-10T01:58:18.632Z,5.20
2017-12-10T02:03:20.163Z,4.07
2017-12-10T02:08:22.388Z,4.80
2017-12-10T02:13:23.901Z,4.63
2017-12-10T02:18:25.394Z,4.73
2017-12-10T02:23:26.935Z,5.17
2017-12-10T02:28:28.446Z,5.03
2017-12-10T02:33:29.958Z,6.70
2017-12-10T02:38:31.481Z,5.03
2017-12-10T02:43:33.009Z,5.90
2017-12-10T02:48:35.263Z,4.97
2017-12-10T02:53:36.768Z,5.23
2017-12-10T02:58:39.027Z,6.40
2017-12-10T03:03:40.601Z,5.67
2017-12-10T03:08:42.097Z,6.57
2017-12-10T03:13:43.578Z,5.47
2017-12-10T03:18:47.141Z,5.63
2017-12-10T03:23:48.646Z,5.23
2017-12-10T03:28:50.928Z,5.97
2017-12-10T03:33:52.438Z,6.00
2017-12-10T03:38:54.785Z,5.67
2017-12-10T03:43:57.061Z,6.20
2017-12-10T03:48:59.301Z,7.20
2017-12-10T03:54:00.869Z,6.10
2017-12-10T03:59:02.356Z,5.97
2017-12-10T04:04:03.860Z,6.50
2017-12-10T04:09:05.385Z,7.10
2017-12-10T04:14:06.893Z,6.33
2017-12-10T04:19:08.520Z,7.47
2017-12-10T04:24:10.019Z,6.97
2017-12-10T04:29:12.276Z,8.13
2017-12-10T04:34:13.768Z,6.67
2017-12-10T04:39:16.013Z,8.07
2017-12-10T04:44:17.540Z,7.90
2017-12-10T04:49:19.050Z,6.10
2017-12-10T04:54:20.539Z,7.10
2017-12-10T04:59:22.054Z,7.60
2017-12-10T05:04:23.593Z,6.70
2017-12-10T05:09:25.268Z,5.97
2017-12-10T05:14:26.794Z,7.47
2017-12-10T05:19:28.276Z,7.63
2017-12-10T05:24:29.770Z,7.30
2017-12-10T05:29:31.285Z,8.50
2017-12-10T05:34:32.854Z,8.07
2017-12-10T05:39:34.369Z,7.60
2017-12-10T05:44:35.923Z,6.30
2017-12-10T05:49:37.492Z,6.20
2017-12-10T05:54:39.712Z,7.30
2017-12-10T05:59:41.211Z,7.10
2017-12-10T06:04:42.698Z,6.50
2017-12-10T06:09:44.210Z,7.47
2017-12-10T06:14:45.780Z,5.97
2017-12-10T06:19:48.018Z,5.87
2017-12-10T06:24:50.285Z,5.70
2017-12-10T06:29:51.788Z,5.83
2017-12-10T06:34:54.056Z,5.73
2017-12-10T06:39:55.539Z,5.93
2017-12-10T06:44:57.874Z,6.60
2017-12-10T06:49:59.454Z,5.83
2017-12-10T06:55:00.945Z,5.57
2017-12-10T07:00:02.460Z,5.80
2017-12-10T07:05:03.966Z,6.33
2017-12-10T07:10:05.469Z,5.33
2017-12-10T07:15:06.997Z,5.40
2017-12-10T07:20:08.531Z,5.30
2017-12-10T07:25:10.061Z,4.77
2017-12-10T07:30:12.386Z,5.00
2017-12-10T07:35:14.082Z,5.50
2017-12-10T07:40:15.669Z,4.83
2017-12-10T07:45:17.196Z,5.30
2017-12-10T07:50:18.694Z,5.00
2017-12-10T07:55:20.234Z,5.00
2017-12-10T08:00:21.761Z,4.77
2017-12-10T08:05:23.994Z,5.27
2017-12-10T08:10:25.494Z,4.00
2017-12-10T08:15:27.825Z,6.27
2017-12-10T08:20:29.368Z,4.23
2017-12-10T08:25:30.900Z,4.60
2017-12-10T08:30:32.488Z,4.60
2017-12-10T08:35:34.770Z,21.57
2017-12-10T08:40:37.106Z,4.10
2017-12-10T08:45:41.218Z,5.00
2017-12-10T08:50:42.788Z,3.93
2017-12-10T08:55:44.298Z,3.50
2017-12-10T09:00:45.822Z,4.30
2017-12-10T09:05:47.321Z,3.60
2017-12-10T09:10:48.883Z,3.33
2017-12-10T09:15:50.409Z,3.37
2017-12-10T09:20:51.919Z,4.00
2017-12-10T09:25:53.476Z,3.67
2017-12-10T09:30:55.063Z,3.13
2017-12-10T09:35:56.592Z,2.97
2017-12-10T09:40:58.155Z,3.70
2017-12-10T09:45:59.664Z,4.27
2017-12-10T09:51:01.214Z,2.80
2017-12-10T09:56:02.731Z,4.00
2017-12-10T10:01:05.014Z,3.20
2017-12-10T10:06:07.271Z,4.47
2017-12-10T10:11:08.833Z,3.20
2017-12-10T10:16:10.339Z,3.77
2017-12-10T10:21:12.594Z,3.90
2017-12-10T10:26:14.091Z,4.63
2017-12-10T10:31:16.372Z,4.33
2017-12-10T10:36:18.697Z,4.43
2017-12-10T10:41:20.220Z,4.00
2017-12-10T10:46:22.522Z,5.37
2017-12-10T10:51:24.118Z,3.30
2017-12-10T10:56:25.744Z,3.50
2017-12-10T11:01:28.034Z,5.77
2017-12-10T11:06:30.306Z,4.50
2017-12-10T11:11:31.814Z,4.93
2017-12-10T11:16:33.408Z,5.83
2017-12-10T11:21:34.953Z,8.13
2017-12-10T11:26:36.493Z,7.00
2017-12-10T11:31:38.790Z,7.53
2017-12-10T11:36:40.316Z,6.67
2017-12-10T11:41:41.869Z,6.97
2017-12-10T11:46:43.482Z,8.67
2017-12-10T11:51:45.753Z,12.90
2017-12-10T11:56:47.274Z,6.70
2017-12-10T12:01:48.984Z,5.17
2017-12-10T12:06:50.530Z,12.53
2017-12-10T12:11:52.060Z,4.60
2017-12-10T12:16:53.581Z,5.13
2017-12-10T12:21:55.123Z,5.17
2017-12-10T12:26:56.710Z,5.20
2017-12-10T12:31:58.242Z,4.70
2017-12-10T12:36:59.749Z,7.93
2017-12-10T12:42:01.297Z,5.27
2017-12-10T12:47:02.907Z,5.33
2017-12-10T12:52:05.192Z,4.63
2017-12-10T12:57:07.381Z,5.83
2017-12-10T13:02:09.655Z,4.70
2017-12-10T13:07:11.573Z,6.10
2017-12-10T13:12:13.104Z,3.83
2017-12-10T13:17:15.394Z,4.47
2017-12-10T13:22:16.974Z,4.90
2017-12-10T13:27:18.592Z,6.43
2017-12-10T13:32:20.122Z,5.90
2017-12-10T13:37:21.688Z,7.43
2017-12-10T13:42:23.232Z,6.70
2017-12-10T13:47:25.572Z,7.03
2017-12-10T13:52:27.134Z,6.70
2017-12-10T13:57:28.739Z,5.90
2017-12-10T14:02:30.427Z,6.40
2017-12-10T14:07:32.786Z,8.70
2017-12-10T14:12:34.301Z,6.00
2017-12-10T14:17:35.848Z,8.60
2017-12-10T14:22:38.125Z,7.33
2017-12-10T14:27:39.625Z,9.97
2017-12-10T14:32:48.194Z,14.20
2017-12-10T14:37:49.756Z,8.80
2017-12-10T14:42:51.315Z,8.40
2017-12-10T14:47:52.877Z,10.93
2017-12-10T14:52:54.421Z,12.30
2017-12-10T14:57:55.901Z,12.77
2017-12-10T15:02:57.591Z,12.80
2017-12-10T15:07:59.250Z,12.37
2017-12-10T15:13:00.881Z,10.70
2017-12-10T15:18:02.434Z,17.20
2017-12-10T15:23:03.974Z,14.07
2017-12-10T15:28:05.512Z,16.03
2017-12-10T15:33:07.063Z,12.83
2017-12-10T15:38:09.318Z,12.00
2017-12-10T15:43:10.887Z,15.47
2017-12-10T15:48:12.422Z,11.60
2017-12-10T15:53:14.041Z,11.40
2017-12-10T15:58:15.666Z,13.77
2017-12-10T16:03:17.194Z,12.53
2017-12-10T16:08:19.586Z,12.37
2017-12-10T16:13:21.124Z,27.00
2017-12-10T16:18:22.647Z,18.60
2017-12-10T16:23:24.110Z,17.30
2017-12-10T16:28:25.624Z,18.83
2017-12-10T16:33:27.167Z,16.57
2017-12-10T16:38:28.705Z,14.70
2017-12-10T16:43:30.332Z,17.40
2017-12-10T16:48:32.816Z,16.47
2017-12-10T16:53:34.302Z,16.57
2017-12-10T16:58:36.534Z,15.60
2017-12-10T17:03:38.065Z,14.80
2017-12-10T17:08:39.643Z,15.90
2017-12-10T17:13:41.320Z,15.40
2017-12-10T17:18:42.810Z,15.10
2017-12-10T17:23:44.305Z,14.17
2017-12-10T17:28:45.850Z,14.90
2017-12-10T17:33:47.379Z,15.20
2017-12-10T17:38:48.884Z,17.13
2017-12-10T17:43:50.449Z,15.73
2017-12-10T17:48:52.057Z,14.97
2017-12-10T17:53:54.435Z,18.60
2017-12-10T17:58:56.030Z,16.67
2017-12-10T18:03:57.758Z,24.07
2017-12-10T18:08:59.319Z,15.57
2017-12-10T18:14:00.944Z,16.67
2017-12-10T18:19:02.606Z,15.97
2017-12-10T18:24:05.115Z,16.97
2017-12-10T18:29:06.678Z,16.10
2017-12-10T18:34:08.309Z,13.07
2017-12-10T18:39:10.018Z,16.00
2017-12-10T18:44:11.777Z,13.47
2017-12-10T18:49:13.389Z,14.13
2017-12-10T18:54:14.941Z,9.67
2017-12-10T18:59:16.811Z,11.40
2017-12-10T19:04:18.459Z,9.27
2017-12-10T19:09:20.964Z,11.03
2017-12-10T19:14:22.795Z,9.60
2017-12-10T19:19:24.459Z,12.80
2017-12-10T19:24:26.076Z,9.40
2017-12-10T19:29:27.671Z,15.77
2017-12-10T19:34:29.270Z,16.10
2017-12-10T19:39:30.860Z,6.97
2017-12-10T19:44:32.472Z,7.97
2017-12-10T19:49:34.152Z,7.70
2017-12-10T19:54:35.767Z,6.93
2017-12-10T19:59:37.369Z,7.67
2017-12-10T20:04:39.099Z,7.53
2017-12-10T20:09:41.406Z,6.37
2017-12-10T20:14:43.822Z,5.60
2017-12-10T20:19:45.403Z,8.03
2017-12-10T20:24:46.974Z,5.07
2017-12-10T20:29:48.555Z,6.57
2017-12-10T20:34:50.146Z,7.67
2017-12-10T20:39:51.681Z,4.67
2017-12-10T20:44:53.250Z,2.77
2017-12-10T20:49:54.799Z,4.40
2017-12-10T20:54:56.371Z,4.00
2017-12-10T20:59:57.848Z,4.00
2017-12-10T21:04:59.425Z,3.23
2017-12-10T21:10:00.971Z,6.70
2017-12-10T21:15:02.641Z,4.50
2017-12-10T21:20:04.253Z,6.63
2017-12-10T21:25:05.858Z,10.00
2017-12-10T21:30:07.413Z,4.07
2017-12-10T21:35:09.030Z,6.87
2017-12-10T21:40:10.544Z,3.87
2017-12-10T21:45:12.360Z,4.20
2017-12-10T21:50:13.923Z,4.07
2017-12-10T21:55:15.452Z,4.67
2017-12-10T22:00:17.038Z,5.67
2017-12-10T22:05:19.236Z,6.13
2017-12-10T22:10:20.684Z,6.27
2017-12-10T22:15:23.032Z,3.90
2017-12-10T22:20:24.577Z,4.23
2017-12-10T22:25:26.070Z,3.73
2017-12-10T22:30:27.555Z,2.80
2017-12-10T22:35:36.139Z,2.37
2017-12-10T22:40:37.620Z,1.80
2017-12-10T22:45:39.361Z,1.40
2017-12-10T22:50:41.656Z,1.77
2017-12-10T22:55:43.193Z,1.70
2017-12-10T23:00:44.724Z,1.13
2017-12-10T23:05:46.377Z,1.30
2017-12-10T23:10:47.907Z,1.30
2017-12-10T23:15:50.306Z,1.30
2017-12-10T23:20:52.590Z,1.50
2017-12-10T23:25:54.890Z,2.60
2017-12-10T23:30:56.410Z,2.03
2017-12-10T23:35:57.913Z,2.07
2017-12-10T23:41:00.133Z,1.90
2017-12-10T23:46:01.636Z,3.57
2017-12-10T23:51:03.135Z,2.47
2017-12-10T23:56:04.649Z,2.90
